Bridgeboro, New Jersey
Current Conditions -  °F | °C
As of 6:54 AM on Tuesday 21 Oct 2014 (Local Time) from KPNE Reporting Station
Broken Clouds Broken Clouds  
Wind Chill: 51°   Ceiling: 10000
Heat Index: 51°   Visibility: 10mi
Dew Point: 44°   Wind: 6mph
Humidity: 77%   Direction: 40°NE
Pressure: 29.88"   Gusts: NA
Location:  40.0192°N, 74.9489°W
Report Text: KPNE 211054Z 04005KT 10SM BKN100 11/07 A2988 RMK AO2 SLP119 T01060067 $
Loading
Personal Weather Stations






























Interactive Weather Map
Tropical Storm Tracking
New forecast layout! Learn more

10-Day Weather Forecast

Advertisements
Track Severe Weather on mobile